This is the latest recevied weather packets stored in our database for station/object 9W2CEW-1. If no packets are shown the sender has not sent any weather packets the latest 10 day(s).
| Time | Temp. | Humidity | Pressure | Rain* | Wind** | Luminosity | Snow |
|---|---|---|---|---|---|---|---|
| 1777750446 | 31.67° C | 66% | 1002.8 hPa | - | - | - | - |
| 1777749604 | 31.11° C | 68% | 1002.9 hPa | - | - | - | - |
| 1777749546 | 31.11° C | 68% | 1002.9 hPa | - | - | - | - |
| 1777748646 | 32.22° C | 65% | 1002.9 hPa | - | - | - | - |
| 1777747745 | 32.78° C | 63% | 1002.9 hPa | - | - | - | - |
| 1777746845 | 32.22° C | 65% | 1003.1 hPa | - | - | - | - |
| 1777745988 | 31.67° C | 67% | 1003.3 hPa | - | - | - | - |
| 1777745945 | 31.67° C | 67% | 1003.3 hPa | - | - | - | - |
| 1777745045 | 31.11° C | 69% | 1003.5 hPa | - | - | - | - |
| 1777744145 | 32.22° C | 66% | 1003.9 hPa | - | - | - | - |
| 1777743282 | 32.22° C | 66% | 1003.9 hPa | - | - | - | - |
| 1777743245 | 32.22° C | 66% | 1003.9 hPa | - | - | - | - |
| 1777742402 | 32.22° C | 68% | 1004.2 hPa | - | - | - | - |
| 1777742345 | 32.22° C | 68% | 1004.2 hPa | - | - | - | - |
| 1777741445 | 32.78° C | 66% | 1004.2 hPa | - | - | - | - |
| 1777740545 | 32.22° C | 66% | 1004.3 hPa | - | - | - | - |
| 1777739850 | 32.22° C | 66% | 1004.6 hPa | - | - | - | - |
| 1777739645 | 32.22° C | 66% | 1004.6 hPa | - | - | - | - |
| 1777738792 | 32.22° C | 67% | 1004.6 hPa | - | - | - | - |
| 1777738745 | 32.22° C | 67% | 1004.6 hPa | - | - | - | - |
| 1777737954 | 33.33° C | 64% | 1004.5 hPa | - | - | - | - |
| 1777737844 | 33.33° C | 64% | 1004.5 hPa | - | - | - | - |
| 1777736945 | 33.33° C | 66% | 1004.6 hPa | - | - | - | - |
| 1777736044 | 32.78° C | 66% | 1004.6 hPa | - | - | - | - |
| 1777735189 | 33.33° C | 62% | 1004.4 hPa | - | - | - | - |
* Rain since midnight (hover to see other rain measurements)
** Current wind speed in m/s (hover to see current wind gust speed)